Terminal Aerodrome Forecast
Issued by NWS

Home | Current Version | Previous Version | Graphics & Text | Print | Product List | Glossary Off
Versions: 1 2 3 4 5 6 7 8 9 10 11 12 13 14 15 16 17 18 19

000
FTUS43 KDDC 062000 AAA
TAFHYS
TAF AMD
KHYS 062000Z 0620/0718 33011KT P6SM SCT200
     FM070000 14003KT P6SM OVC130
     FM070600 05012G22KT P6SM OVC070
     FM071200 04014G24KT P6SM VCSH OVC040
     FM071500 03015G25KT 3SM -SHSN OVC015=

USA.gov is the U.S. government's official web portal to all federal, state and local government web resources and services.